Portada
METAR-TAF:

METAR-TAF

Aeroports :

Komatsujima, Japó

latitud: 34-00N, longitud: 134-38E, altitud: 3 m

Observació

L'informe es va fer fa 14 hores i 14 minuts, a les 14:03 UTC
Vent 20 kt del Nord amb ràfegues de 32 kt
Temperatura 9°C
Humitat 57%
Pressió 1016 hPa
Visibilitat 10 km o més
Escasses núvols a una alçada de 3000 ft
Cel ennuvolat a una alçada de 4500 ft

METAR: RJOP 221403Z 36020G32KT 9999 FEW030 BKN045 09/01 Q1016 RMK 1CU030 6SC045 A3001

Hora: 13:17 (04:17 UTC)


TAF: manca

Observacions i pronòstics meteorològics de més de 4000 aeroports (METAR i TAF).

Les estacions disponibles són els punts grocs i vermells al mapa.

Posi el ratolí al punt desitjat per veure el nom de l'estació.

Feu clic per veure les observacions i els pronòstics meteorològics.

Per canviar el mapa: feu clic els botons verds amb una creu de color negre per apropar; al botó verd amb un guió per allunyar la imatge; o en les fletxes verdes per a mapes adjacents.


METAR-TAF: